Time;durP1;ratioP1;P1;durP2;ratioP2;P2;SDS_P1;SDS_P2;PMS_P1;PMS_P2;Temp;Humidity;BMP_temperature;BMP_pressure;BME280_temperature;BME280_humidity;BME280_pressure;Samples;Min_cycle;Max_cycle;Signal;HPM_P1;HPM_P2
2021/10/23 00:01:17;;;;;;;6.53;2.78;;;;;;;;;;6241485;28;20564;-82
2021/10/23 00:04:19;;;;;;;7.93;3.42;;;;;;;;;;6225350;28;20038;-82
2021/10/23 00:07:21;;;;;;;11.13;4.20;;;;;;;;;;6237042;28;20133;-81
2021/10/23 00:10:22;;;;;;;11.15;3.92;;;;;;;;;;6224392;28;20058;-83
2021/10/23 00:13:24;;;;;;;8.32;3.35;;;;;;;;;;6219572;28;20092;-81
2021/10/23 00:16:26;;;;;;;7.00;3.35;;;;;;;;;;6220762;28;20456;-83
2021/10/23 00:19:27;;;;;;;9.23;3.60;;;;;;;;;;6218797;28;20149;-83
2021/10/23 00:22:29;;;;;;;6.50;2.80;;;;;;;;;;6243801;28;20043;-82
2021/10/23 00:25:31;;;;;;;9.57;3.00;;;;;;;;;;6245057;28;20060;-83
2021/10/23 00:28:32;;;;;;;8.30;2.90;;;;;;;;;;6234308;28;20057;-82
2021/10/23 00:31:35;;;;;;;11.27;3.58;;;;;;;;;;6202704;28;20042;-83
2021/10/23 00:34:36;;;;;;;6.32;3.75;;;;;;;;;;6211723;28;20046;-83
2021/10/23 00:37:38;;;;;;;7.05;4.20;;;;;;;;;;6213051;28;20038;-82
2021/10/23 00:40:39;;;;;;;10.35;4.78;;;;;;;;;;6196371;28;20050;-83
2021/10/23 00:43:44;;;;;;;8.80;3.88;;;;;;;;;;6204607;28;20048;-82
2021/10/23 00:46:46;;;;;;;9.43;3.88;;;;;;;;;;6223659;28;20042;-81
2021/10/23 00:49:54;;;;;;;7.47;4.00;;;;;;;;;;6227880;28;20042;-82
2021/10/23 00:52:55;;;;;;;9.02;4.18;;;;;;;;;;6243932;28;20043;-82
2021/10/23 00:55:57;;;;;;;11.95;4.40;;;;;;;;;;6245301;28;20045;-82
2021/10/23 00:58:59;;;;;;;10.95;4.70;;;;;;;;;;6220202;28;21014;-81
2021/10/23 01:02:02;;;;;;;12.07;5.15;;;;;;;;;;6220948;28;20125;-82
2021/10/23 01:05:05;;;;;;;13.38;6.80;;;;;;;;;;6211895;28;20115;-82
2021/10/23 01:08:07;;;;;;;15.18;6.40;;;;;;;;;;6221228;28;20049;-82
2021/10/23 01:11:09;;;;;;;13.18;6.00;;;;;;;;;;6202109;28;20048;-83
2021/10/23 01:14:19;;;;;;;12.30;5.20;;;;;;;;;;6209898;28;20041;-82
2021/10/23 01:17:22;;;;;;;11.82;5.03;;;;;;;;;;6218026;28;20038;-83
2021/10/23 01:20:25;;;;;;;10.25;4.85;;;;;;;;;;6193004;28;20054;-82
2021/10/23 01:23:26;;;;;;;;;;;;;;;;;;6218828;28;20745;-81
2021/10/23 01:26:28;;;;;;;10.73;4.45;;;;;;;;;;6224437;28;20012;-82
2021/10/23 01:29:30;;;;;;;9.52;4.25;;;;;;;;;;6242911;28;20128;-81
2021/10/23 01:32:32;;;;;;;9.88;3.85;;;;;;;;;;6241853;28;20111;-81
2021/10/23 01:35:34;;;;;;;6.70;3.40;;;;;;;;;;6210013;28;20038;-81
2021/10/23 01:38:35;;;;;;;6.35;3.30;;;;;;;;;;6212521;28;20042;-81
2021/10/23 01:41:39;;;;;;;7.07;3.50;;;;;;;;;;6215314;28;20273;-82
2021/10/23 01:44:40;;;;;;;9.95;3.55;;;;;;;;;;6208720;28;20124;-81
2021/10/23 01:47:43;;;;;;;7.75;3.28;;;;;;;;;;6224059;28;20042;-81
2021/10/23 01:50:45;;;;;;;9.65;4.18;;;;;;;;;;6214280;28;20105;-81
2021/10/23 01:53:47;;;;;;;11.15;4.47;;;;;;;;;;6219311;28;20052;-81
2021/10/23 01:56:48;;;;;;;32.42;5.55;;;;;;;;;;6219199;28;20034;-81
2021/10/23 01:59:51;;;;;;;22.02;4.25;;;;;;;;;;6210452;28;20042;-81
2021/10/23 02:02:52;;;;;;;19.92;4.55;;;;;;;;;;6215815;28;20503;-81
2021/10/23 02:05:54;;;;;;;9.93;4.72;;;;;;;;;;6212665;28;20678;-82
2021/10/23 02:08:56;;;;;;;9.25;4.70;;;;;;;;;;6243394;28;20526;-82
2021/10/23 02:11:58;;;;;;;9.30;4.20;;;;;;;;;;6234423;28;20130;-82
2021/10/23 02:15:00;;;;;;;7.97;3.78;;;;;;;;;;6212028;28;20057;-81
2021/10/23 02:18:01;;;;;;;22.50;4.90;;;;;;;;;;6216260;28;20411;-81
2021/10/23 02:21:06;;;;;;;13.05;4.53;;;;;;;;;;6218877;28;20041;-81
2021/10/23 02:24:08;;;;;;;16.85;5.68;;;;;;;;;;6222944;28;20120;-82
2021/10/23 02:27:10;;;;;;;11.48;5.05;;;;;;;;;;6216762;28;20044;-83
2021/10/23 02:30:12;;;;;;;20.80;5.07;;;;;;;;;;6227562;28;20143;-82
2021/10/23 02:33:14;;;;;;;10.95;4.38;;;;;;;;;;6233550;28;20057;-83
2021/10/23 02:36:15;;;;;;;9.93;4.43;;;;;;;;;;6213182;28;20534;-83
2021/10/23 02:39:17;;;;;;;9.23;4.25;;;;;;;;;;6216931;28;20476;-81
2021/10/23 02:42:19;;;;;;;12.07;4.45;;;;;;;;;;6206472;28;20046;-82
2021/10/23 02:45:20;;;;;;;8.95;3.70;;;;;;;;;;6191903;28;20130;-80
2021/10/23 02:48:22;;;;;;;9.77;4.18;;;;;;;;;;6214614;28;20050;-81
2021/10/23 02:51:24;;;;;;;9.13;4.15;;;;;;;;;;6225006;28;20045;-82
2021/10/23 02:54:25;;;;;;;9.48;5.30;;;;;;;;;;6216787;28;20056;-83
2021/10/23 02:57:27;;;;;;;12.57;4.55;;;;;;;;;;6214297;28;20056;-83
2021/10/23 03:00:29;;;;;;;10.52;5.10;;;;;;;;;;6221162;28;20148;-83
2021/10/23 03:03:32;;;;;;;8.65;4.10;;;;;;;;;;6232496;28;20050;-83
2021/10/23 03:06:33;;;;;;;12.95;4.72;;;;;;;;;;6223270;28;20168;-82
2021/10/23 03:09:35;;;;;;;7.93;4.22;;;;;;;;;;6241476;28;20049;-82
2021/10/23 03:12:37;;;;;;;8.07;4.30;;;;;;;;;;6229779;28;20058;-83
2021/10/23 03:15:38;;;;;;;9.35;4.38;;;;;;;;;;6214911;28;20255;-83
2021/10/23 03:18:40;;;;;;;9.02;4.00;;;;;;;;;;6192420;28;20042;-81
2021/10/23 03:21:42;;;;;;;10.07;4.10;;;;;;;;;;6233324;28;20050;-82
2021/10/23 03:24:44;;;;;;;11.40;4.32;;;;;;;;;;6214265;28;20231;-81
2021/10/23 03:27:46;;;;;;;8.68;3.78;;;;;;;;;;6180178;28;20046;-81
2021/10/23 03:30:48;;;;;;;8.63;3.60;;;;;;;;;;6203784;28;20046;-82
2021/10/23 03:33:50;;;;;;;10.18;4.72;;;;;;;;;;6189085;28;20035;-82
2021/10/23 03:36:51;;;;;;;8.05;3.63;;;;;;;;;;6222781;28;20041;-81
2021/10/23 03:39:54;;;;;;;9.43;3.80;;;;;;;;;;6218530;28;20525;-82
2021/10/23 03:43:00;;;;;;;8.45;3.95;;;;;;;;;;6235627;28;20045;-81
2021/10/23 03:46:02;;;;;;;9.45;4.45;;;;;;;;;;6199573;28;20053;-81
2021/10/23 03:49:04;;;;;;;9.98;4.53;;;;;;;;;;6228234;28;20095;-80
2021/10/23 03:52:05;;;;;;;13.90;4.70;;;;;;;;;;6197046;28;20092;-81
2021/10/23 03:55:09;;;;;;;15.07;4.53;;;;;;;;;;6216083;28;20042;-81
2021/10/23 03:58:11;;;;;;;;;;;;;;;;;;6219309;28;20042;-82
2021/10/23 04:01:13;;;;;;;9.98;4.10;;;;;;;;;;6201294;28;19927;-81
2021/10/23 04:04:15;;;;;;;7.93;4.03;;;;;;;;;;6213554;28;20049;-83
2021/10/23 04:07:16;;;;;;;10.63;4.47;;;;;;;;;;6210240;28;20136;-81
2021/10/23 04:10:18;;;;;;;10.15;5.18;;;;;;;;;;6216019;28;20045;-82
2021/10/23 04:13:19;;;;;;;11.77;5.35;;;;;;;;;;6207160;28;20133;-82
2021/10/23 04:16:21;;;;;;;10.80;5.13;;;;;;;;;;6230358;28;20079;-82
2021/10/23 04:19:23;;;;;;;11.00;5.30;;;;;;;;;;6218988;28;20162;-82
2021/10/23 04:22:24;;;;;;;9.82;4.22;;;;;;;;;;6231410;28;20045;-82
2021/10/23 04:25:26;;;;;;;7.53;4.32;;;;;;;;;;6243661;28;20055;-82
2021/10/23 04:28:28;;;;;;;10.27;4.70;;;;;;;;;;6227852;28;20042;-82
2021/10/23 04:31:34;;;;;;;11.07;4.75;;;;;;;;;;6202641;28;20041;-82
2021/10/23 04:34:37;;;;;;;11.40;4.93;;;;;;;;;;6212426;28;20054;-83
2021/10/23 04:37:40;;;;;;;7.78;4.07;;;;;;;;;;6215016;28;20046;-82
2021/10/23 04:40:42;;;;;;;8.18;4.40;;;;;;;;;;6199683;28;20136;-81
2021/10/23 04:43:44;;;;;;;13.27;5.47;;;;;;;;;;6209281;28;20411;-82
2021/10/23 04:46:45;;;;;;;13.30;5.25;;;;;;;;;;6230069;28;20060;-83
2021/10/23 04:49:47;;;;;;;11.93;7.63;;;;;;;;;;6213654;28;20053;-82
2021/10/23 04:52:48;;;;;;;12.85;7.53;;;;;;;;;;6212589;28;20414;-82
2021/10/23 04:55:50;;;;;;;13.05;7.68;;;;;;;;;;6212161;28;20545;-82
2021/10/23 04:58:52;;;;;;;12.55;6.65;;;;;;;;;;6213231;28;20414;-81
2021/10/23 05:01:53;;;;;;;9.18;4.75;;;;;;;;;;6218408;28;20050;-83
2021/10/23 05:04:55;;;;;;;8.85;4.55;;;;;;;;;;6216928;28;20664;-83
2021/10/23 05:07:57;;;;;;;10.10;5.45;;;;;;;;;;6216183;28;20136;-82
2021/10/23 05:10:58;;;;;;;10.88;5.22;;;;;;;;;;6214691;28;20054;-83
2021/10/23 05:14:00;;;;;;;7.93;4.60;;;;;;;;;;6236074;28;20495;-83
2021/10/23 05:17:01;;;;;;;8.82;4.47;;;;;;;;;;6240661;28;20045;-82
2021/10/23 05:20:04;;;;;;;11.60;6.38;;;;;;;;;;6199134;28;20050;-83
2021/10/23 05:23:07;;;;;;;7.03;4.20;;;;;;;;;;6222718;28;20041;-82
2021/10/23 05:26:08;;;;;;;9.50;4.47;;;;;;;;;;6237657;28;20168;-84
2021/10/23 05:29:10;;;;;;;10.15;4.72;;;;;;;;;;6211092;28;20530;-83
2021/10/23 05:32:11;;;;;;;11.23;4.95;;;;;;;;;;6219511;28;20310;-82
2021/10/23 05:35:13;;;;;;;11.45;5.13;;;;;;;;;;6218794;28;20049;-79
2021/10/23 05:38:14;;;;;;;12.98;5.32;;;;;;;;;;6218546;28;20053;-82
2021/10/23 05:41:16;;;;;;;10.82;6.38;;;;;;;;;;6214265;28;20702;-82
2021/10/23 05:44:18;;;;;;;10.52;4.90;;;;;;;;;;6197610;28;20100;-81
2021/10/23 05:47:19;;;;;;;7.57;4.55;;;;;;;;;;6216680;28;20054;-81
2021/10/23 05:50:21;;;;;;;9.13;3.70;;;;;;;;;;6189077;28;20038;-83
2021/10/23 05:53:23;;;;;;;7.60;4.30;;;;;;;;;;6212567;28;20526;-81
2021/10/23 05:56:24;;;;;;;10.95;4.40;;;;;;;;;;6197485;28;20052;-82
2021/10/23 05:59:26;;;;;;;7.30;4.30;;;;;;;;;;6206257;28;20045;-82
2021/10/23 06:02:31;;;;;;;10.07;4.93;;;;;;;;;;6196061;28;20050;-81
2021/10/23 06:05:33;;;;;;;11.75;6.28;;;;;;;;;;6200354;28;20412;-83
2021/10/23 06:08:36;;;;;;;14.13;7.05;;;;;;;;;;6204507;28;20042;-82
2021/10/23 06:11:38;;;;;;;19.38;8.02;;;;;;;;;;6217382;28;20046;-82
2021/10/23 06:14:39;;;;;;;20.98;10.75;;;;;;;;;;6208027;28;20129;-82
2021/10/23 06:17:41;;;;;;;18.75;7.70;;;;;;;;;;6234984;28;20046;-82
2021/10/23 06:20:44;;;;;;;16.85;7.47;;;;;;;;;;6212670;28;20396;-80
2021/10/23 06:23:45;;;;;;;12.52;6.00;;;;;;;;;;6231728;28;20051;-81
2021/10/23 06:26:47;;;;;;;10.90;6.53;;;;;;;;;;6243040;28;20041;-82
2021/10/23 06:29:49;;;;;;;13.32;6.30;;;;;;;;;;6233194;28;20526;-83
2021/10/23 06:32:53;;;;;;;16.38;7.78;;;;;;;;;;6217020;28;20064;-82
2021/10/23 06:35:55;;;;;;;14.32;7.28;;;;;;;;;;6229758;28;20124;-83
2021/10/23 06:38:57;;;;;;;15.48;7.60;;;;;;;;;;6225434;28;20046;-83
2021/10/23 06:41:58;;;;;;;24.02;9.80;;;;;;;;;;6215094;28;20198;-82
2021/10/23 06:45:00;;;;;;;25.45;11.65;;;;;;;;;;6237309;28;20411;-82
2021/10/23 06:48:02;;;;;;;16.25;8.00;;;;;;;;;;6231726;28;20049;-83
2021/10/23 06:51:03;;;;;;;12.18;6.65;;;;;;;;;;6226577;28;20049;-83
2021/10/23 06:54:05;;;;;;;13.38;7.18;;;;;;;;;;6241642;28;20043;-82
2021/10/23 06:57:07;;;;;;;10.05;5.47;;;;;;;;;;6251499;28;20506;-82
2021/10/23 07:00:28;;;;;;;9.48;5.78;;;;;;;;;;6236077;28;20049;-82
2021/10/23 07:03:30;;;;;;;12.40;6.38;;;;;;;;;;6220719;28;20045;-83
2021/10/23 07:06:32;;;;;;;8.77;5.30;;;;;;;;;;6182938;28;20055;-82
2021/10/23 07:09:34;;;;;;;14.43;7.75;;;;;;;;;;6202176;28;20042;-83
2021/10/23 07:12:36;;;;;;;16.42;7.68;;;;;;;;;;6214109;28;20084;-82
2021/10/23 07:15:39;;;;;;;12.05;6.90;;;;;;;;;;6209030;28;20083;-82
2021/10/23 07:18:41;;;;;;;11.10;6.32;;;;;;;;;;6193544;28;20406;-82
2021/10/23 07:21:42;;;;;;;10.68;6.20;;;;;;;;;;6234205;28;20510;-83
2021/10/23 07:24:44;;;;;;;13.07;7.13;;;;;;;;;;6219474;28;20158;-83
2021/10/23 07:27:46;;;;;;;16.17;6.57;;;;;;;;;;6238366;28;20446;-83
2021/10/23 07:30:47;;;;;;;16.65;7.38;;;;;;;;;;6232882;28;20053;-83
2021/10/23 07:33:49;;;;;;;16.75;9.82;;;;;;;;;;6201849;28;20045;-83
2021/10/23 07:36:50;;;;;;;12.35;8.13;;;;;;;;;;6207906;28;20439;-82
2021/10/23 07:39:52;;;;;;;12.63;7.95;;;;;;;;;;6201499;28;20042;-83
2021/10/23 07:42:54;;;;;;;20.13;10.63;;;;;;;;;;6217165;28;20038;-82
2021/10/23 07:45:55;;;;;;;11.82;6.00;;;;;;;;;;6235016;28;20056;-83
2021/10/23 07:48:57;;;;;;;11.82;6.63;;;;;;;;;;6227956;28;20046;-83
2021/10/23 07:51:58;;;;;;;10.55;6.18;;;;;;;;;;6224470;28;20110;-83
2021/10/23 07:55:02;;;;;;;10.10;6.22;;;;;;;;;;6219791;28;20046;-83
2021/10/23 07:58:04;;;;;;;9.40;6.43;;;;;;;;;;6203956;28;20048;-83
2021/10/23 08:01:06;;;;;;;8.48;5.50;;;;;;;;;;6221593;28;20038;-83
2021/10/23 08:04:07;;;;;;;8.48;4.40;;;;;;;;;;6201492;28;20559;-83
2021/10/23 08:07:09;;;;;;;7.07;4.20;;;;;;;;;;6221003;28;20045;-82
2021/10/23 08:10:11;;;;;;;8.70;4.45;;;;;;;;;;6212178;28;20540;-83
2021/10/23 08:13:13;;;;;;;6.35;4.38;;;;;;;;;;6211833;28;20141;-83
2021/10/23 08:16:15;;;;;;;7.95;4.65;;;;;;;;;;6212948;28;20044;-82
2021/10/23 08:19:16;;;;;;;8.07;4.95;;;;;;;;;;6203209;28;20058;-82
2021/10/23 08:22:18;;;;;;;26.00;12.55;;;;;;;;;;6201119;28;20149;-82
2021/10/23 08:25:21;;;;;;;26.38;12.40;;;;;;;;;;6198139;28;20080;-82
2021/10/23 08:28:23;;;;;;;19.50;11.23;;;;;;;;;;6199736;28;20465;-82
2021/10/23 08:31:25;;;;;;;18.45;9.20;;;;;;;;;;6204888;28;20050;-81
2021/10/23 08:34:29;;;;;;;11.43;6.47;;;;;;;;;;6199521;28;20100;-81
2021/10/23 08:37:31;;;;;;;12.70;6.40;;;;;;;;;;6186676;28;20038;-82
2021/10/23 08:40:33;;;;;;;13.43;6.15;;;;;;;;;;6201558;28;20046;-82
2021/10/23 08:43:34;;;;;;;10.35;5.28;;;;;;;;;;6210592;28;20050;-81
2021/10/23 08:46:37;;;;;;;13.32;4.97;;;;;;;;;;6214608;28;20042;-82
2021/10/23 08:49:39;;;;;;;8.50;4.40;;;;;;;;;;6185049;28;20048;-81
2021/10/23 08:52:44;;;;;;;9.93;5.00;;;;;;;;;;6196673;28;20045;-81
2021/10/23 08:55:47;;;;;;;9.35;4.10;;;;;;;;;;6201838;28;20143;-82
2021/10/23 08:58:48;;;;;;;8.63;4.60;;;;;;;;;;6207908;28;20046;-81
2021/10/23 09:01:55;;;;;;;9.13;4.85;;;;;;;;;;6193535;28;20056;-82
2021/10/23 09:04:57;;;;;;;10.25;4.80;;;;;;;;;;6192530;28;20424;-80
2021/10/23 09:07:59;;;;;;;10.85;4.90;;;;;;;;;;6207321;28;20141;-82
2021/10/23 09:11:01;;;;;;;13.35;6.85;;;;;;;;;;6213941;28;20048;-82
2021/10/23 09:14:26;;;;;;;16.55;7.85;;;;;;;;;;6211643;28;20080;-81
2021/10/23 09:17:28;;;;;;;15.32;5.85;;;;;;;;;;6216286;28;20129;-79
2021/10/23 09:20:37;;;;;;;11.75;5.25;;;;;;;;;;6219029;28;20418;-80
2021/10/23 09:23:39;;;;;;;9.95;5.03;;;;;;;;;;6214670;28;20046;-81
2021/10/23 09:26:40;;;;;;;10.65;5.10;;;;;;;;;;6216015;28;20042;-82
2021/10/23 09:29:42;;;;;;;11.25;5.53;;;;;;;;;;6233238;28;20124;-81
2021/10/23 09:32:51;;;;;;;7.95;4.75;;;;;;;;;;6212928;28;20061;-81
2021/10/23 09:35:56;;;;;;;10.15;4.15;;;;;;;;;;6191024;28;20056;-81
2021/10/23 09:39:00;;;;;;;9.90;4.90;;;;;;;;;;6188499;28;20050;-80
2021/10/23 09:42:12;;;;;;;9.80;4.40;;;;;;;;;;6192795;28;20224;-81
2021/10/23 09:45:13;;;;;;;7.47;4.40;;;;;;;;;;6220168;28;20049;-82
2021/10/23 09:48:16;;;;;;;9.40;4.90;;;;;;;;;;6213965;28;20513;-81
2021/10/23 09:51:25;;;;;;;6.53;4.40;;;;;;;;;;6226445;28;20093;-80
2021/10/23 09:54:26;;;;;;;9.52;4.68;;;;;;;;;;6238838;28;20477;-82
2021/10/23 09:57:29;;;;;;;7.97;3.90;;;;;;;;;;6232547;28;20585;-81
2021/10/23 10:00:31;;;;;;;10.43;3.95;;;;;;;;;;6217986;28;20129;-81
2021/10/23 10:03:33;;;;;;;7.55;3.75;;;;;;;;;;6214234;28;20416;-81
2021/10/23 10:06:46;;;;;;;11.25;4.25;;;;;;;;;;6232552;28;20043;-80
2021/10/23 10:09:48;;;;;;;9.48;5.45;;;;;;;;;;6241938;28;20045;-80
2021/10/23 10:12:49;;;;;;;10.23;3.90;;;;;;;;;;6191213;28;21060;-80
2021/10/23 10:16:02;;;;;;;8.55;4.13;;;;;;;;;;6226070;28;20037;-80
2021/10/23 10:19:04;;;;;;;15.52;6.35;;;;;;;;;;6214540;28;20041;-82
2021/10/23 10:22:08;;;;;;;10.05;3.47;;;;;;;;;;6218014;28;20053;-80
2021/10/23 10:25:17;;;;;;;10.48;4.43;;;;;;;;;;6215887;28;20776;-81
2021/10/23 10:28:18;;;;;;;8.77;4.50;;;;;;;;;;6207864;28;20045;-78
2021/10/23 10:31:50;;;;;;;8.55;3.47;;;;;;;;;;6215147;28;20037;-78
2021/10/23 10:44:29;;;;;;;7.70;3.22;;;;;;;;;;6210084;28;20057;-81
2021/10/23 10:47:51;;;;;;;5.68;3.03;;;;;;;;;;6208440;28;20490;-80
2021/10/23 10:50:53;;;;;;;8.27;3.00;;;;;;;;;;6191275;28;20567;-80
2021/10/23 10:53:58;;;;;;;7.22;3.05;;;;;;;;;;6209265;28;20057;-81
2021/10/23 10:56:59;;;;;;;7.40;3.58;;;;;;;;;;6205926;28;20418;-80
2021/10/23 11:00:03;;;;;;;12.73;4.85;;;;;;;;;;6196818;28;20050;-81
2021/10/23 11:03:37;;;;;;;10.00;4.35;;;;;;;;;;6206970;28;20130;-82
2021/10/23 11:06:41;;;;;;;9.90;4.20;;;;;;;;;;6209765;28;20716;-80
2021/10/23 11:09:43;;;;;;;10.23;4.32;;;;;;;;;;6210071;28;20061;-80
2021/10/23 11:12:45;;;;;;;7.25;3.35;;;;;;;;;;6208378;28;20049;-80
2021/10/23 11:15:46;;;;;;;7.05;3.40;;;;;;;;;;6186020;28;20048;-80
2021/10/23 11:18:57;;;;;;;4.47;2.70;;;;;;;;;;6205682;28;20064;-80
2021/10/23 11:22:16;;;;;;;5.63;2.33;;;;;;;;;;6207900;28;20054;-82
2021/10/23 11:25:24;;;;;;;5.07;1.77;;;;;;;;;;6214955;28;20075;-82
2021/10/23 11:28:26;;;;;;;6.43;1.75;;;;;;;;;;6207792;28;20423;-82
2021/10/23 11:31:28;;;;;;;7.90;2.00;;;;;;;;;;6213191;28;20053;-81
2021/10/23 11:34:31;;;;;;;5.55;2.60;;;;;;;;;;6207138;28;20081;-80
2021/10/23 11:37:33;;;;;;;4.97;2.00;;;;;;;;;;6222405;28;20392;-80
2021/10/23 11:40:39;;;;;;;3.92;2.22;;;;;;;;;;6188507;28;20176;-80
2021/10/23 11:43:42;;;;;;;5.97;2.22;;;;;;;;;;6197961;28;20050;-81
2021/10/23 11:46:46;;;;;;;4.03;1.80;;;;;;;;;;6196398;28;20121;-80
2021/10/23 11:49:47;;;;;;;6.25;2.17;;;;;;;;;;6205925;28;20356;-81
2021/10/23 11:53:11;;;;;;;7.05;2.60;;;;;;;;;;6215178;28;20037;-80
2021/10/23 11:56:13;;;;;;;6.60;2.40;;;;;;;;;;6214585;28;20057;-80
2021/10/23 11:59:16;;;;;;;9.35;2.78;;;;;;;;;;6205444;28;20101;-79
2021/10/23 12:02:20;;;;;;;8.70;4.07;;;;;;;;;;6213970;28;20050;-81
2021/10/23 12:05:25;;;;;;;6.72;2.85;;;;;;;;;;6208905;28;20503;-80
2021/10/23 12:08:30;;;;;;;5.28;2.08;;;;;;;;;;6217030;28;20046;-79
2021/10/23 12:11:33;;;;;;;6.15;3.15;;;;;;;;;;6221845;28;20042;-80
2021/10/23 12:14:34;;;;;;;2.58;1.88;;;;;;;;;;6216825;28;20058;-81
2021/10/23 12:17:36;;;;;;;6.43;3.08;;;;;;;;;;6218404;28;20053;-79
2021/10/23 12:20:38;;;;;;;6.20;3.42;;;;;;;;;;6202371;28;20547;-82
2021/10/23 12:23:51;;;;;;;5.80;2.42;;;;;;;;;;6223080;28;20129;-82
2021/10/23 12:27:08;;;;;;;5.90;2.33;;;;;;;;;;6217577;28;20042;-81
2021/10/23 12:30:13;;;;;;;11.13;6.13;;;;;;;;;;6220256;28;20042;-79
2021/10/23 12:33:15;;;;;;;3.47;2.58;;;;;;;;;;6216880;28;20050;-81
2021/10/23 12:36:17;;;;;;;4.85;1.95;;;;;;;;;;6215594;28;20050;-81
2021/10/23 12:39:24;;;;;;;9.70;4.75;;;;;;;;;;6217505;28;20057;-81
2021/10/23 12:42:26;;;;;;;18.23;8.82;;;;;;;;;;6208833;28;20049;-80
2021/10/23 12:45:30;;;;;;;8.57;3.80;;;;;;;;;;6215834;28;20042;-78
2021/10/23 12:48:32;;;;;;;5.50;2.00;;;;;;;;;;6213530;28;20180;-78
2021/10/23 12:51:35;;;;;;;5.15;1.70;;;;;;;;;;6215717;28;20042;-80
2021/10/23 12:54:36;;;;;;;3.95;1.98;;;;;;;;;;6213850;28;20038;-79
2021/10/23 12:57:39;;;;;;;3.08;1.60;;;;;;;;;;6212773;28;20038;-80
2021/10/23 13:00:41;;;;;;;4.72;1.90;;;;;;;;;;6223457;28;20699;-80
2021/10/23 13:03:43;;;;;;;5.07;2.20;;;;;;;;;;6211692;28;20046;-80
2021/10/23 13:06:45;;;;;;;5.13;2.10;;;;;;;;;;6215145;28;20046;-80
2021/10/23 13:09:47;;;;;;;5.95;2.20;;;;;;;;;;6216069;28;20052;-80
2021/10/23 13:12:50;;;;;;;3.58;1.90;;;;;;;;;;6212855;28;20644;-80
2021/10/23 13:15:52;;;;;;;3.47;1.98;;;;;;;;;;6217085;28;20117;-80
2021/10/23 13:18:57;;;;;;;5.47;2.03;;;;;;;;;;6212099;28;20071;-81
2021/10/23 13:22:01;;;;;;;4.93;2.28;;;;;;;;;;6210859;28;20116;-79
2021/10/23 13:25:03;;;;;;;3.95;2.20;;;;;;;;;;6224167;28;20046;-80
2021/10/23 13:28:05;;;;;;;6.85;2.08;;;;;;;;;;6215668;28;20058;-79
2021/10/23 13:31:09;;;;;;;4.43;2.10;;;;;;;;;;6196491;28;20050;-79
2021/10/23 13:34:10;;;;;;;7.07;3.00;;;;;;;;;;6199221;28;20044;-80
2021/10/23 13:37:13;;;;;;;6.30;2.30;;;;;;;;;;6196076;28;20042;-81
2021/10/23 13:40:14;;;;;;;4.90;2.00;;;;;;;;;;6200431;28;20045;-80
2021/10/23 13:43:16;;;;;;;4.78;2.28;;;;;;;;;;6187548;28;21091;-80
2021/10/23 13:46:17;;;;;;;6.30;2.05;;;;;;;;;;6198814;28;20056;-80
2021/10/23 13:49:21;;;;;;;3.47;2.00;;;;;;;;;;6215171;28;20046;-81
2021/10/23 13:52:25;;;;;;;7.45;2.05;;;;;;;;;;6239537;28;20046;-81
2021/10/23 13:55:27;;;;;;;4.45;2.25;;;;;;;;;;6241285;28;20041;-82
2021/10/23 13:58:29;;;;;;;4.22;2.20;;;;;;;;;;6235983;28;20523;-81
2021/10/23 14:01:33;;;;;;;4.88;2.05;;;;;;;;;;6215435;28;20145;-81
2021/10/23 14:04:35;;;;;;;7.70;4.38;;;;;;;;;;6217783;28;20038;-81
2021/10/23 14:07:36;;;;;;;5.55;2.25;;;;;;;;;;6208224;28;20673;-81
2021/10/23 14:10:38;;;;;;;5.05;2.83;;;;;;;;;;6215854;28;20069;-82
2021/10/23 14:13:40;;;;;;;4.80;2.33;;;;;;;;;;6214526;28;20049;-80
2021/10/23 14:16:42;;;;;;;5.63;2.40;;;;;;;;;;6215345;28;20048;-80
2021/10/23 14:19:43;;;;;;;4.00;2.20;;;;;;;;;;6208177;28;20095;-80
2021/10/23 14:22:45;;;;;;;5.88;2.10;;;;;;;;;;6218188;28;20062;-81
2021/10/23 14:25:51;;;;;;;4.30;2.20;;;;;;;;;;6216649;28;20179;-81
2021/10/23 14:28:53;;;;;;;3.70;1.70;;;;;;;;;;6192938;28;20085;-81
2021/10/23 14:31:54;;;;;;;5.45;2.13;;;;;;;;;;6192921;28;20042;-81
2021/10/23 14:34:56;;;;;;;3.47;1.77;;;;;;;;;;6210077;28;20108;-81
2021/10/23 14:37:58;;;;;;;4.97;1.40;;;;;;;;;;6216022;28;20097;-83
2021/10/23 14:41:00;;;;;;;3.80;1.40;;;;;;;;;;6195691;28;20095;-83
2021/10/23 14:44:01;;;;;;;2.47;1.40;;;;;;;;;;6210433;28;20130;-80
2021/10/23 14:47:03;;;;;;;5.50;1.60;;;;;;;;;;6222561;28;20467;-80
2021/10/23 14:50:05;;;;;;;3.05;1.75;;;;;;;;;;6214042;28;20046;-82
2021/10/23 14:53:07;;;;;;;4.68;1.50;;;;;;;;;;6219058;28;20048;-83
2021/10/23 14:56:09;;;;;;;3.47;1.90;;;;;;;;;;6222011;28;20046;-81
2021/10/23 14:59:10;;;;;;;5.63;1.67;;;;;;;;;;6212690;28;20042;-80
2021/10/23 15:02:13;;;;;;;1.70;1.40;;;;;;;;;;6197095;28;20089;-81
2021/10/23 15:05:15;;;;;;;5.85;1.67;;;;;;;;;;6214336;28;20057;-81
2021/10/23 15:08:16;;;;;;;3.30;1.73;;;;;;;;;;6219157;28;20137;-82
2021/10/23 15:11:19;;;;;;;3.25;1.75;;;;;;;;;;6219066;28;20038;-82
2021/10/23 15:14:20;;;;;;;2.78;1.80;;;;;;;;;;6213722;28;20049;-81
2021/10/23 15:17:22;;;;;;;2.67;1.58;;;;;;;;;;6219197;28;20139;-82
2021/10/23 15:20:24;;;;;;;3.67;1.73;;;;;;;;;;6210038;28;20052;-80
2021/10/23 15:23:25;;;;;;;3.65;1.65;;;;;;;;;;6216740;28;20053;-83
2021/10/23 15:26:27;;;;;;;2.65;1.63;;;;;;;;;;6215748;28;20438;-84
2021/10/23 15:29:29;;;;;;;4.32;1.73;;;;;;;;;;6215971;28;20397;-82
2021/10/23 15:32:30;;;;;;;3.95;2.50;;;;;;;;;;6202659;28;20050;-82
2021/10/23 15:35:37;;;;;;;4.03;2.58;;;;;;;;;;6207097;28;20052;-82
2021/10/23 15:38:45;;;;;;;4.57;3.28;;;;;;;;;;6196227;28;20133;-82
2021/10/23 15:41:49;;;;;;;7.32;4.20;;;;;;;;;;6197026;28;20042;-82
2021/10/23 15:44:53;;;;;;;;;;;;;;;;;;6198497;28;20118;-80
2021/10/23 15:47:55;;;;;;;8.18;5.00;;;;;;;;;;6201430;28;20037;-80
2021/10/23 15:50:56;;;;;;;32.47;18.92;;;;;;;;;;6202087;28;20440;-83
2021/10/23 15:53:58;;;;;;;21.40;10.15;;;;;;;;;;6204957;28;20419;-82
2021/10/23 15:57:00;;;;;;;12.45;5.90;;;;;;;;;;6215177;28;20054;-82
2021/10/23 16:00:02;;;;;;;15.82;7.20;;;;;;;;;;6195140;28;20073;-82
2021/10/23 16:03:12;;;;;;;9.82;5.53;;;;;;;;;;6192515;28;20046;-82
2021/10/23 16:06:14;;;;;;;10.57;5.38;;;;;;;;;;6230293;28;20127;-82
2021/10/23 16:09:16;;;;;;;8.93;5.45;;;;;;;;;;6217118;28;20160;-82
2021/10/23 16:12:17;;;;;;;27.83;14.40;;;;;;;;;;6215129;28;20069;-81
2021/10/23 16:15:19;;;;;;;14.95;8.45;;;;;;;;;;6236810;28;20134;-80
2021/10/23 16:18:20;;;;;;;13.00;5.88;;;;;;;;;;6237806;28;20056;-82
2021/10/23 16:21:22;;;;;;;19.92;9.93;;;;;;;;;;6242008;28;20126;-82
2021/10/23 16:24:24;;;;;;;16.00;6.53;;;;;;;;;;6242020;28;20041;-81
2021/10/23 16:27:25;;;;;;;14.05;6.53;;;;;;;;;;6241611;28;20050;-83
2021/10/23 16:30:27;;;;;;;12.32;6.80;;;;;;;;;;6244962;28;20172;-81
2021/10/23 16:33:28;;;;;;;13.05;7.55;;;;;;;;;;6242234;28;20056;-80
2021/10/23 16:36:30;;;;;;;15.57;8.23;;;;;;;;;;6242569;28;20466;-81
2021/10/23 16:39:32;;;;;;;14.38;6.28;;;;;;;;;;6245871;28;20077;-80
2021/10/23 16:42:33;;;;;;;12.05;5.70;;;;;;;;;;6241447;28;20040;-81
2021/10/23 16:45:35;;;;;;;11.52;7.15;;;;;;;;;;6246445;28;20061;-81
2021/10/23 16:48:37;;;;;;;8.40;4.80;;;;;;;;;;6263594;28;20042;-80
2021/10/23 16:51:39;;;;;;;128.13;68.32;;;;;;;;;;6246967;28;20037;-80
2021/10/23 16:54:41;;;;;;;53.33;30.75;;;;;;;;;;6248980;28;20048;-82
2021/10/23 16:57:42;;;;;;;10.98;5.70;;;;;;;;;;6253103;28;20128;-83
2021/10/23 17:00:44;;;;;;;11.55;4.28;;;;;;;;;;6246312;28;20053;-81
2021/10/23 17:03:46;;;;;;;9.23;4.00;;;;;;;;;;6242038;28;20069;-81
2021/10/23 17:06:47;;;;;;;18.25;10.88;;;;;;;;;;6243325;28;20091;-83
2021/10/23 17:09:49;;;;;;;9.52;7.40;;;;;;;;;;6243521;28;20051;-82
2021/10/23 17:12:51;;;;;;;16.50;10.00;;;;;;;;;;6235100;28;20034;-82
2021/10/23 17:15:53;;;;;;;18.52;12.07;;;;;;;;;;6226218;28;20112;-82
2021/10/23 17:18:54;;;;;;;46.90;26.70;;;;;;;;;;6224995;28;20495;-82
2021/10/23 17:21:56;;;;;;;14.77;8.93;;;;;;;;;;6244532;28;20071;-82
2021/10/23 17:24:58;;;;;;;42.63;20.60;;;;;;;;;;6243339;28;20045;-83
2021/10/23 17:28:00;;;;;;;16.40;9.07;;;;;;;;;;6241946;28;20041;-82
2021/10/23 17:31:02;;;;;;;16.02;9.93;;;;;;;;;;6250566;28;20041;-84
2021/10/23 17:34:05;;;;;;;20.23;11.82;;;;;;;;;;6240962;28;20052;-83
2021/10/23 17:37:06;;;;;;;18.10;9.95;;;;;;;;;;6243262;28;20128;-82
2021/10/23 17:40:08;;;;;;;15.38;8.85;;;;;;;;;;6273260;28;20101;-83
2021/10/23 17:43:10;;;;;;;52.33;25.48;;;;;;;;;;6251698;28;20050;-83
2021/10/23 17:46:12;;;;;;;21.73;12.85;;;;;;;;;;6249155;28;20095;-84
2021/10/23 17:49:14;;;;;;;29.30;14.68;;;;;;;;;;6239438;28;20041;-84
2021/10/23 17:52:16;;;;;;;27.55;15.43;;;;;;;;;;6231259;28;20049;-83
2021/10/23 17:55:17;;;;;;;30.10;13.98;;;;;;;;;;6250559;28;20056;-81
2021/10/23 17:58:19;;;;;;;28.15;13.65;;;;;;;;;;6232752;28;20080;-81
2021/10/23 18:01:21;;;;;;;33.42;14.80;;;;;;;;;;6250741;28;20087;-83
2021/10/23 18:04:23;;;;;;;43.90;21.95;;;;;;;;;;6225211;28;20132;-81
2021/10/23 18:07:25;;;;;;;67.70;27.27;;;;;;;;;;6247471;28;20056;-82
2021/10/23 18:10:27;;;;;;;68.20;33.17;;;;;;;;;;6232353;28;20087;-80
2021/10/23 18:13:32;;;;;;;51.25;23.98;;;;;;;;;;6244932;28;20047;-80
2021/10/23 18:16:47;;;;;;;46.30;22.80;;;;;;;;;;6248203;28;20109;-80